Aviation Digital Data Service (ADDS)

Output produced by METARs form (2111 UTC 16 February 2019)
found at http://www.aviationweather.gov/metar/data/
 
METAR text: EHLW 162055Z AUTO 21007KT 170V230 9000 BR OVC023 09/07 Q1023 WHT
Conditions at: EHLW (LEEUWARDEN RNLAF, NL) observed 2055 UTC 16 February 2019
Temperature: 9.0°C (48°F)
Dewpoint: 7.0°C (45°F) [RH = 87%]
Pressure (altimeter): 30.21 inches Hg (1023.0 mb)
Winds: from the SSW (210 degrees) at 8 MPH (7 knots; 3.6 m/s)
Visibility: 6 miles ( 9 km)
Ceiling: 2300 feet AGL
Clouds: overcast cloud deck at 2300 feet AGL
Weather: BR  (mist)

METAR text: EHLW 162043Z AUTO 21008KT 9000 BR OVC023 09/07 Q1023 WHT
Conditions at: EHLW (LEEUWARDEN RNLAF, NL) observed 2043 UTC 16 February 2019
Temperature: 9.0°C (48°F)
Dewpoint: 7.0°C (45°F) [RH = 87%]
Pressure (altimeter): 30.21 inches Hg (1023.0 mb)
Winds: from the SSW (210 degrees) at 9 MPH (8 knots; 4.1 m/s)
Visibility: 6 miles ( 9 km)
Ceiling: 2300 feet AGL
Clouds: overcast cloud deck at 2300 feet AGL
Weather: BR  (mist)

METAR text: EHLW 162025Z AUTO 21008KT 170V230 8000 BR OVC023 09/07 Q1023 WHT
Conditions at: EHLW (LEEUWARDEN RNLAF, NL) observed 2025 UTC 16 February 2019
Temperature: 9.0°C (48°F)
Dewpoint: 7.0°C (45°F) [RH = 87%]
Pressure (altimeter): 30.21 inches Hg (1023.0 mb)
Winds: from the SSW (210 degrees) at 9 MPH (8 knots; 4.1 m/s)
Visibility: 5 miles ( 8 km)
Ceiling: 2300 feet AGL
Clouds: overcast cloud deck at 2300 feet AGL
Weather: BR  (mist)

METAR text: EHLW 161955Z AUTO 21007KT 160V240 8000 BR OVC023 09/07 Q1023 WHT
Conditions at: EHLW (LEEUWARDEN RNLAF, NL) observed 1955 UTC 16 February 2019
Temperature: 9.0°C (48°F)
Dewpoint: 7.0°C (45°F) [RH = 87%]
Pressure (altimeter): 30.21 inches Hg (1023.0 mb)
Winds: from the SSW (210 degrees) at 8 MPH (7 knots; 3.6 m/s)
Visibility: 5 miles ( 8 km)
Ceiling: 2300 feet AGL
Clouds: overcast cloud deck at 2300 feet AGL
Weather: BR  (mist)

METAR text: EHLW 161933Z AUTO 20008KT 9000 BR OVC023 09/07 Q1023 WHT
Conditions at: EHLW (LEEUWARDEN RNLAF, NL) observed 1933 UTC 16 February 2019
Temperature: 9.0°C (48°F)
Dewpoint: 7.0°C (45°F) [RH = 87%]
Pressure (altimeter): 30.21 inches Hg (1023.0 mb)
Winds: from the SSW (200 degrees) at 9 MPH (8 knots; 4.1 m/s)
Visibility: 6 miles ( 9 km)
Ceiling: 2300 feet AGL
Clouds: overcast cloud deck at 2300 feet AGL
Weather: BR  (mist)

METAR text: EHLW 161925Z AUTO 20008KT 160V240 9000 BR OVC022 09/07 Q1023 WHT
Conditions at: EHLW (LEEUWARDEN RNLAF, NL) observed 1925 UTC 16 February 2019
Temperature: 9.0°C (48°F)
Dewpoint: 7.0°C (45°F) [RH = 87%]
Pressure (altimeter): 30.21 inches Hg (1023.0 mb)
Winds: from the SSW (200 degrees) at 9 MPH (8 knots; 4.1 m/s)
Visibility: 6 miles ( 9 km)
Ceiling: 2200 feet AGL
Clouds: overcast cloud deck at 2200 feet AGL
Weather: BR  (mist)

METAR text: EHLW 161855Z AUTO 20008KT 9000 BR OVC021 09/07 Q1023 WHT
Conditions at: EHLW (LEEUWARDEN RNLAF, NL) observed 1855 UTC 16 February 2019
Temperature: 9.0°C (48°F)
Dewpoint: 7.0°C (45°F) [RH = 87%]
Pressure (altimeter): 30.21 inches Hg (1023.0 mb)
Winds: from the SSW (200 degrees) at 9 MPH (8 knots; 4.1 m/s)
Visibility: 6 miles ( 9 km)
Ceiling: 2100 feet AGL
Clouds: overcast cloud deck at 2100 feet AGL
Weather: BR  (mist)

METAR text: EHLW 161825Z AUTO 20006KT 9999 OVC019 09/07 Q1023 WHT
Conditions at: EHLW (LEEUWARDEN RNLAF, NL) observed 1825 UTC 16 February 2019
Temperature: 9.0°C (48°F)
Dewpoint: 7.0°C (45°F) [RH = 87%]
Pressure (altimeter): 30.21 inches Hg (1023.0 mb)
Winds: from the SSW (200 degrees) at 7 MPH (6 knots; 3.1 m/s)
Visibility: 6 or more miles (10+ km)
Ceiling: 1900 feet AGL
Clouds: overcast cloud deck at 1900 feet AGL
Weather: no significant weather observed at this time

METAR text: EHLW 161755Z AUTO 21006KT 9000 BR OVC022 09/07 Q1023 WHT
Conditions at: EHLW (LEEUWARDEN RNLAF, NL) observed 1755 UTC 16 February 2019
Temperature: 9.0°C (48°F)
Dewpoint: 7.0°C (45°F) [RH = 87%]
Pressure (altimeter): 30.21 inches Hg (1023.0 mb)
Winds: from the SSW (210 degrees) at 7 MPH (6 knots; 3.1 m/s)
Visibility: 6 miles ( 9 km)
Ceiling: 2200 feet AGL
Clouds: overcast cloud deck at 2200 feet AGL
Weather: BR  (mist)

METAR text: EHLW 161725Z AUTO 21006KT 180V240 9000 BR OVC021 09/07 Q1023 WHT
Conditions at: EHLW (LEEUWARDEN RNLAF, NL) observed 1725 UTC 16 February 2019
Temperature: 9.0°C (48°F)
Dewpoint: 7.0°C (45°F) [RH = 87%]
Pressure (altimeter): 30.21 inches Hg (1023.0 mb)
Winds: from the SSW (210 degrees) at 7 MPH (6 knots; 3.1 m/s)
Visibility: 6 miles ( 9 km)
Ceiling: 2100 feet AGL
Clouds: overcast cloud deck at 2100 feet AGL
Weather: BR  (mist)

METAR text: EHLW 161659Z AUTO 21006KT 9000 BR OVC022 09/07 Q1023 WHT
Conditions at: EHLW (LEEUWARDEN RNLAF, NL) observed 1659 UTC 16 February 2019
Temperature: 9.0°C (48°F)
Dewpoint: 7.0°C (45°F) [RH = 87%]
Pressure (altimeter): 30.21 inches Hg (1023.0 mb)
Winds: from the SSW (210 degrees) at 7 MPH (6 knots; 3.1 m/s)
Visibility: 6 miles ( 9 km)
Ceiling: 2200 feet AGL
Clouds: overcast cloud deck at 2200 feet AGL
Weather: BR  (mist)

METAR text: EHLW 161655Z AUTO 21006KT 9999 OVC023 09/07 Q1023 WHT
Conditions at: EHLW (LEEUWARDEN RNLAF, NL) observed 1655 UTC 16 February 2019
Temperature: 9.0°C (48°F)
Dewpoint: 7.0°C (45°F) [RH = 87%]
Pressure (altimeter): 30.21 inches Hg (1023.0 mb)
Winds: from the SSW (210 degrees) at 7 MPH (6 knots; 3.1 m/s)
Visibility: 6 or more miles (10+ km)
Ceiling: 2300 feet AGL
Clouds: overcast cloud deck at 2300 feet AGL
Weather: no significant weather observed at this time

METAR text: EHLW 161647Z AUTO 22007KT 9999 OVC023 10/07 Q1023 WHT
Conditions at: EHLW (LEEUWARDEN RNLAF, NL) observed 1647 UTC 16 February 2019
Temperature: 10.0°C (50°F)
Dewpoint: 7.0°C (45°F) [RH = 82%]
Pressure (altimeter): 30.21 inches Hg (1023.0 mb)
Winds: from the SW (220 degrees) at 8 MPH (7 knots; 3.6 m/s)
Visibility: 6 or more miles (10+ km)
Ceiling: 2300 feet AGL
Clouds: overcast cloud deck at 2300 feet AGL
Weather: no significant weather observed at this time

METAR text: EHLW 161641Z AUTO 22007KT 9999 OVC025 10/07 Q1023 BLU
Conditions at: EHLW (LEEUWARDEN RNLAF, NL) observed 1641 UTC 16 February 2019
Temperature: 10.0°C (50°F)
Dewpoint: 7.0°C (45°F) [RH = 82%]
Pressure (altimeter): 30.21 inches Hg (1023.0 mb)
Winds: from the SW (220 degrees) at 8 MPH (7 knots; 3.6 m/s)
Visibility: 6 or more miles (10+ km)
Ceiling: 2500 feet AGL
Clouds: overcast cloud deck at 2500 feet AGL
Weather: no significant weather observed at this time

METAR text: EHLW 161636Z AUTO 21006KT 170V230 9999 OVC024 10/07 Q1023 WHT
Conditions at: EHLW (LEEUWARDEN RNLAF, NL) observed 1636 UTC 16 February 2019
Temperature: 10.0°C (50°F)
Dewpoint: 7.0°C (45°F) [RH = 82%]
Pressure (altimeter): 30.21 inches Hg (1023.0 mb)
Winds: from the SSW (210 degrees) at 7 MPH (6 knots; 3.1 m/s)
Visibility: 6 or more miles (10+ km)
Ceiling: 2400 feet AGL
Clouds: overcast cloud deck at 2400 feet AGL
Weather: no significant weather observed at this time

METAR text: EHLW 161627Z AUTO 21006KT 9999 OVC024 10/07 Q1023 WHT
Conditions at: EHLW (LEEUWARDEN RNLAF, NL) observed 1627 UTC 16 February 2019
Temperature: 10.0°C (50°F)
Dewpoint: 7.0°C (45°F) [RH = 82%]
Pressure (altimeter): 30.21 inches Hg (1023.0 mb)
Winds: from the SSW (210 degrees) at 7 MPH (6 knots; 3.1 m/s)
Visibility: 6 or more miles (10+ km)
Ceiling: 2400 feet AGL
Clouds: overcast cloud deck at 2400 feet AGL
Weather: no significant weather observed at this time

METAR text: EHLW 161625Z AUTO 21007KT 9999 OVC026 10/07 Q1023 BLU
Conditions at: EHLW (LEEUWARDEN RNLAF, NL) observed 1625 UTC 16 February 2019
Temperature: 10.0°C (50°F)
Dewpoint: 7.0°C (45°F) [RH = 82%]
Pressure (altimeter): 30.21 inches Hg (1023.0 mb)
Winds: from the SSW (210 degrees) at 8 MPH (7 knots; 3.6 m/s)
Visibility: 6 or more miles (10+ km)
Ceiling: 2600 feet AGL
Clouds: overcast cloud deck at 2600 feet AGL
Weather: no significant weather observed at this time

METAR text: EHLW 161555Z AUTO 22010KT 9999 BKN026 10/08 Q1023 BLU
Conditions at: EHLW (LEEUWARDEN RNLAF, NL) observed 1555 UTC 16 February 2019
Temperature: 10.0°C (50°F)
Dewpoint: 8.0°C (46°F) [RH = 87%]
Pressure (altimeter): 30.21 inches Hg (1023.0 mb)
Winds: from the SW (220 degrees) at 12 MPH (10 knots; 5.1 m/s)
Visibility: 6 or more miles (10+ km)
Ceiling: 2600 feet AGL
Clouds: broken clouds at 2600 feet AGL
Weather: no significant weather observed at this time

METAR text: EHLW 161525Z AUTO 22010KT 9999 OVC026 10/08 Q1023 BLU
Conditions at: EHLW (LEEUWARDEN RNLAF, NL) observed 1525 UTC 16 February 2019
Temperature: 10.0°C (50°F)
Dewpoint: 8.0°C (46°F) [RH = 87%]
Pressure (altimeter): 30.21 inches Hg (1023.0 mb)
Winds: from the SW (220 degrees) at 12 MPH (10 knots; 5.1 m/s)
Visibility: 6 or more miles (10+ km)
Ceiling: 2600 feet AGL
Clouds: overcast cloud deck at 2600 feet AGL
Weather: no significant weather observed at this time

METAR text: EHLW 161500Z AUTO 23011KT 9999 OVC025 11/08 Q1023 BLU
Conditions at: EHLW (LEEUWARDEN RNLAF, NL) observed 1500 UTC 16 February 2019
Temperature: 11.0°C (52°F)
Dewpoint: 8.0°C (46°F) [RH = 82%]
Pressure (altimeter): 30.21 inches Hg (1023.0 mb)
Winds: from the SW (230 degrees) at 13 MPH (11 knots; 5.7 m/s)
Visibility: 6 or more miles (10+ km)
Ceiling: 2500 feet AGL
Clouds: overcast cloud deck at 2500 feet AGL
Weather: no significant weather observed at this time

METAR text: EHLW 161455Z AUTO 23011KT 200V260 9999 BKN024 OVC028 11/08 Q1023 WHT
Conditions at: EHLW (LEEUWARDEN RNLAF, NL) observed 1455 UTC 16 February 2019
Temperature: 11.0°C (52°F)
Dewpoint: 8.0°C (46°F) [RH = 82%]
Pressure (altimeter): 30.21 inches Hg (1023.0 mb)
Winds: from the SW (230 degrees) at 13 MPH (11 knots; 5.7 m/s)
Visibility: 6 or more miles (10+ km)
Ceiling: 2400 feet AGL
Clouds: broken clouds at 2400 feet AGL
overcast cloud deck at 2800 feet AGL
Weather: no significant weather observed at this time

METAR text: EHLW 161425Z AUTO 23010KT 200V260 9999 OVC022 11/07 Q1023 WHT
Conditions at: EHLW (LEEUWARDEN RNLAF, NL) observed 1425 UTC 16 February 2019
Temperature: 11.0°C (52°F)
Dewpoint: 7.0°C (45°F) [RH = 76%]
Pressure (altimeter): 30.21 inches Hg (1023.0 mb)
Winds: from the SW (230 degrees) at 12 MPH (10 knots; 5.1 m/s)
Visibility: 6 or more miles (10+ km)
Ceiling: 2200 feet AGL
Clouds: overcast cloud deck at 2200 feet AGL
Weather: no significant weather observed at this time

METAR text: EHLW 161408Z AUTO 24011KT 9999 SCT022 OVC270 11/07 Q1023 WHT
Conditions at: EHLW (LEEUWARDEN RNLAF, NL) observed 1408 UTC 16 February 2019
Temperature: 11.0°C (52°F)
Dewpoint: 7.0°C (45°F) [RH = 76%]
Pressure (altimeter): 30.21 inches Hg (1023.0 mb)
Winds: from the WSW (240 degrees) at 13 MPH (11 knots; 5.7 m/s)
Visibility: 6 or more miles (10+ km)
Ceiling: 27000 feet AGL
Clouds: scattered clouds at 2200 feet AGL
overcast cloud deck at 27000 feet AGL
Weather: no significant weather observed at this time

METAR text: EHLW 161355Z AUTO 23011KT 200V260 9999 OVC300 11/07 Q1023 BLU
Conditions at: EHLW (LEEUWARDEN RNLAF, NL) observed 1355 UTC 16 February 2019
Temperature: 11.0°C (52°F)
Dewpoint: 7.0°C (45°F) [RH = 76%]
Pressure (altimeter): 30.21 inches Hg (1023.0 mb)
Winds: from the SW (230 degrees) at 13 MPH (11 knots; 5.7 m/s)
Visibility: 6 or more miles (10+ km)
Ceiling: 30000 feet AGL
Clouds: overcast cloud deck at 30000 feet AGL
Weather: no significant weather observed at this time

METAR text: EHLW 161325Z AUTO 23012KT 210V270 9999 SCT280 OVC330 11/07 Q1023 BLU
Conditions at: EHLW (LEEUWARDEN RNLAF, NL) observed 1325 UTC 16 February 2019
Temperature: 11.0°C (52°F)
Dewpoint: 7.0°C (45°F) [RH = 76%]
Pressure (altimeter): 30.21 inches Hg (1023.0 mb)
Winds: from the SW (230 degrees) at 14 MPH (12 knots; 6.2 m/s)
Visibility: 6 or more miles (10+ km)
Ceiling: 33000 feet AGL
Clouds: scattered clouds at 28000 feet AGL
overcast cloud deck at 33000 feet AGL
Weather: no significant weather observed at this time

METAR text: EHLW 161255Z AUTO 24011KT 200V270 9999 OVC270 11/07 Q1023 BLU
Conditions at: EHLW (LEEUWARDEN RNLAF, NL) observed 1255 UTC 16 February 2019
Temperature: 11.0°C (52°F)
Dewpoint: 7.0°C (45°F) [RH = 76%]
Pressure (altimeter): 30.21 inches Hg (1023.0 mb)
Winds: from the WSW (240 degrees) at 13 MPH (11 knots; 5.7 m/s)
Visibility: 6 or more miles (10+ km)
Ceiling: 27000 feet AGL
Clouds: overcast cloud deck at 27000 feet AGL
Weather: no significant weather observed at this time

METAR text: EHLW 161225Z AUTO 23011KT 9999 OVC270 11/06 Q1023 BLU
Conditions at: EHLW (LEEUWARDEN RNLAF, NL) observed 1225 UTC 16 February 2019
Temperature: 11.0°C (52°F)
Dewpoint: 6.0°C (43°F) [RH = 71%]
Pressure (altimeter): 30.21 inches Hg (1023.0 mb)
Winds: from the SW (230 degrees) at 13 MPH (11 knots; 5.7 m/s)
Visibility: 6 or more miles (10+ km)
Ceiling: 27000 feet AGL
Clouds: overcast cloud deck at 27000 feet AGL
Weather: no significant weather observed at this time

METAR text: EHLW 161155Z AUTO 22012KT 190V250 9999 OVC270 11/06 Q1023 BLU
Conditions at: EHLW (LEEUWARDEN RNLAF, NL) observed 1155 UTC 16 February 2019
Temperature: 11.0°C (52°F)
Dewpoint: 6.0°C (43°F) [RH = 71%]
Pressure (altimeter): 30.21 inches Hg (1023.0 mb)
Winds: from the SW (220 degrees) at 14 MPH (12 knots; 6.2 m/s)
Visibility: 6 or more miles (10+ km)
Ceiling: 27000 feet AGL
Clouds: overcast cloud deck at 27000 feet AGL
Weather: no significant weather observed at this time

METAR text: EHLW 161125Z AUTO 23011KT 190V250 9999 FEW280 OVC330 10/06 Q1023 BLU
Conditions at: EHLW (LEEUWARDEN RNLAF, NL) observed 1125 UTC 16 February 2019
Temperature: 10.0°C (50°F)
Dewpoint: 6.0°C (43°F) [RH = 76%]
Pressure (altimeter): 30.21 inches Hg (1023.0 mb)
Winds: from the SW (230 degrees) at 13 MPH (11 knots; 5.7 m/s)
Visibility: 6 or more miles (10+ km)
Ceiling: 33000 feet AGL
Clouds: few clouds at 28000 feet AGL
overcast cloud deck at 33000 feet AGL
Weather: no significant weather observed at this time

METAR text: EHLW 161055Z AUTO 22011KT 190V250 9999 BKN270 OVC360 10/06 Q1023 BLU
Conditions at: EHLW (LEEUWARDEN RNLAF, NL) observed 1055 UTC 16 February 2019
Temperature: 10.0°C (50°F)
Dewpoint: 6.0°C (43°F) [RH = 76%]
Pressure (altimeter): 30.21 inches Hg (1023.0 mb)
Winds: from the SW (220 degrees) at 13 MPH (11 knots; 5.7 m/s)
Visibility: 6 or more miles (10+ km)
Ceiling: 27000 feet AGL
Clouds: broken clouds at 27000 feet AGL
overcast cloud deck at 36000 feet AGL
Weather: no significant weather observed at this time

METAR text: EHLW 161025Z AUTO 22012KT 9999 OVC270 09/05 Q1023 BLU
Conditions at: EHLW (LEEUWARDEN RNLAF, NL) observed 1025 UTC 16 February 2019
Temperature: 9.0°C (48°F)
Dewpoint: 5.0°C (41°F) [RH = 76%]
Pressure (altimeter): 30.21 inches Hg (1023.0 mb)
Winds: from the SW (220 degrees) at 14 MPH (12 knots; 6.2 m/s)
Visibility: 6 or more miles (10+ km)
Ceiling: 27000 feet AGL
Clouds: overcast cloud deck at 27000 feet AGL
Weather: no significant weather observed at this time

METAR text: EHLW 160955Z AUTO 23009KT 9999 OVC270 08/05 Q1023 BLU
Conditions at: EHLW (LEEUWARDEN RNLAF, NL) observed 0955 UTC 16 February 2019
Temperature: 8.0°C (46°F)
Dewpoint: 5.0°C (41°F) [RH = 81%]
Pressure (altimeter): 30.21 inches Hg (1023.0 mb)
Winds: from the SW (230 degrees) at 10 MPH (9 knots; 4.6 m/s)
Visibility: 6 or more miles (10+ km)
Ceiling: 27000 feet AGL
Clouds: overcast cloud deck at 27000 feet AGL
Weather: no significant weather observed at this time

METAR text: EHLW 160925Z AUTO 20009KT 170V230 9999 OVC270 07/04 Q1023 BLU
Conditions at: EHLW (LEEUWARDEN RNLAF, NL) observed 0925 UTC 16 February 2019
Temperature: 7.0°C (45°F)
Dewpoint: 4.0°C (39°F) [RH = 81%]
Pressure (altimeter): 30.21 inches Hg (1023.0 mb)
Winds: from the SSW (200 degrees) at 10 MPH (9 knots; 4.6 m/s)
Visibility: 6 or more miles (10+ km)
Ceiling: 27000 feet AGL
Clouds: overcast cloud deck at 27000 feet AGL
Weather: no significant weather observed at this time

METAR text: EHLW 160855Z AUTO 21008KT 9999 OVC290 06/04 Q1023 BLU
Conditions at: EHLW (LEEUWARDEN RNLAF, NL) observed 0855 UTC 16 February 2019
Temperature: 6.0°C (43°F)
Dewpoint: 4.0°C (39°F) [RH = 87%]
Pressure (altimeter): 30.21 inches Hg (1023.0 mb)
Winds: from the SSW (210 degrees) at 9 MPH (8 knots; 4.1 m/s)
Visibility: 6 or more miles (10+ km)
Ceiling: 29000 feet AGL
Clouds: overcast cloud deck at 29000 feet AGL
Weather: no significant weather observed at this time

METAR text: EHLW 160825Z AUTO 20008KT 170V230 9999 OVC290 05/03 Q1023 BLU
Conditions at: EHLW (LEEUWARDEN RNLAF, NL) observed 0825 UTC 16 February 2019
Temperature: 5.0°C (41°F)
Dewpoint: 3.0°C (37°F) [RH = 87%]
Pressure (altimeter): 30.21 inches Hg (1023.0 mb)
Winds: from the SSW (200 degrees) at 9 MPH (8 knots; 4.1 m/s)
Visibility: 6 or more miles (10+ km)
Ceiling: 29000 feet AGL
Clouds: overcast cloud deck at 29000 feet AGL
Weather: no significant weather observed at this time

METAR text: EHLW 160755Z AUTO 20007KT 9999 BKN330 03/02 Q1023 BLU
Conditions at: EHLW (LEEUWARDEN RNLAF, NL) observed 0755 UTC 16 February 2019
Temperature: 3.0°C (37°F)
Dewpoint: 2.0°C (36°F) [RH = 93%]
Pressure (altimeter): 30.21 inches Hg (1023.0 mb)
Winds: from the SSW (200 degrees) at 8 MPH (7 knots; 3.6 m/s)
Visibility: 6 or more miles (10+ km)
Ceiling: 33000 feet AGL
Clouds: broken clouds at 33000 feet AGL
Weather: no significant weather observed at this time

METAR text: EHLW 160725Z AUTO 19007KT 170V230 9999 NCD 02/01 Q1023 BLU
Conditions at: EHLW (LEEUWARDEN RNLAF, NL) observed 0725 UTC 16 February 2019
Temperature: 2.0°C (36°F)
Dewpoint: 1.0°C (34°F) [RH = 93%]
Pressure (altimeter): 30.21 inches Hg (1023.0 mb)
Winds: from the S (190 degrees) at 8 MPH (7 knots; 3.6 m/s)
Visibility: 6 or more miles (10+ km)
Ceiling: at least 12,000 feet AGL
Clouds: sky clear below 12,000 feet AGL
Weather: no significant weather observed at this time

METAR text: EHLW 160655Z AUTO 19007KT 9999 FEW370 02/01 Q1023 BLU
Conditions at: EHLW (LEEUWARDEN RNLAF, NL) observed 0655 UTC 16 February 2019
Temperature: 2.0°C (36°F)
Dewpoint: 1.0°C (34°F) [RH = 93%]
Pressure (altimeter): 30.21 inches Hg (1023.0 mb)
Winds: from the S (190 degrees) at 8 MPH (7 knots; 3.6 m/s)
Visibility: 6 or more miles (10+ km)
Ceiling: at least 12,000 feet AGL
Clouds: few clouds at 37000 feet AGL
Weather: no significant weather observed at this time

METAR text: EHLW 160625Z AUTO 20007KT 160V230 9999 NCD 02/01 Q1022 BLU
Conditions at: EHLW (LEEUWARDEN RNLAF, NL) observed 0625 UTC 16 February 2019
Temperature: 2.0°C (36°F)
Dewpoint: 1.0°C (34°F) [RH = 93%]
Pressure (altimeter): 30.18 inches Hg (1022.0 mb)
Winds: from the SSW (200 degrees) at 8 MPH (7 knots; 3.6 m/s)
Visibility: 6 or more miles (10+ km)
Ceiling: at least 12,000 feet AGL
Clouds: sky clear below 12,000 feet AGL
Weather: no significant weather observed at this time

METAR text: EHLW 160555Z AUTO 19007KT 160V220 9999 NCD 03/01 Q1022 BLU
Conditions at: EHLW (LEEUWARDEN RNLAF, NL) observed 0555 UTC 16 February 2019
Temperature: 3.0°C (37°F)
Dewpoint: 1.0°C (34°F) [RH = 87%]
Pressure (altimeter): 30.18 inches Hg (1022.0 mb)
Winds: from the S (190 degrees) at 8 MPH (7 knots; 3.6 m/s)
Visibility: 6 or more miles (10+ km)
Ceiling: at least 12,000 feet AGL
Clouds: sky clear below 12,000 feet AGL
Weather: no significant weather observed at this time

METAR text: EHLW 160525Z AUTO 18008KT 150V220 9999 NCD 03/01 Q1022 BLU
Conditions at: EHLW (LEEUWARDEN RNLAF, NL) observed 0525 UTC 16 February 2019
Temperature: 3.0°C (37°F)
Dewpoint: 1.0°C (34°F) [RH = 87%]
Pressure (altimeter): 30.18 inches Hg (1022.0 mb)
Winds: from the S (180 degrees) at 9 MPH (8 knots; 4.1 m/s)
Visibility: 6 or more miles (10+ km)
Ceiling: at least 12,000 feet AGL
Clouds: sky clear below 12,000 feet AGL
Weather: no significant weather observed at this time

METAR text: EHLW 160455Z AUTO 19007KT 160V220 9999 NCD 02/00 Q1023 BLU
Conditions at: EHLW (LEEUWARDEN RNLAF, NL) observed 0455 UTC 16 February 2019
Temperature: 2.0°C (36°F)
Dewpoint: 0.0°C (32°F) [RH = 87%]
Pressure (altimeter): 30.21 inches Hg (1023.0 mb)
Winds: from the S (190 degrees) at 8 MPH (7 knots; 3.6 m/s)
Visibility: 6 or more miles (10+ km)
Ceiling: at least 12,000 feet AGL
Clouds: sky clear below 12,000 feet AGL
Weather: no significant weather observed at this time

METAR text: EHLW 160425Z AUTO 19007KT 160V220 9999 NCD 02/01 Q1023 BLU
Conditions at: EHLW (LEEUWARDEN RNLAF, NL) observed 0425 UTC 16 February 2019
Temperature: 2.0°C (36°F)
Dewpoint: 1.0°C (34°F) [RH = 93%]
Pressure (altimeter): 30.21 inches Hg (1023.0 mb)
Winds: from the S (190 degrees) at 8 MPH (7 knots; 3.6 m/s)
Visibility: 6 or more miles (10+ km)
Ceiling: at least 12,000 feet AGL
Clouds: sky clear below 12,000 feet AGL
Weather: no significant weather observed at this time

METAR text: EHLW 160355Z AUTO 18006KT 160V220 9999 NCD 03/01 Q1023 BLU
Conditions at: EHLW (LEEUWARDEN RNLAF, NL) observed 0355 UTC 16 February 2019
Temperature: 3.0°C (37°F)
Dewpoint: 1.0°C (34°F) [RH = 87%]
Pressure (altimeter): 30.21 inches Hg (1023.0 mb)
Winds: from the S (180 degrees) at 7 MPH (6 knots; 3.1 m/s)
Visibility: 6 or more miles (10+ km)
Ceiling: at least 12,000 feet AGL
Clouds: sky clear below 12,000 feet AGL
Weather: no significant weather observed at this time

METAR text: EHLW 160325Z AUTO 18007KT 140V220 9999 NCD 02/01 Q1023 BLU
Conditions at: EHLW (LEEUWARDEN RNLAF, NL) observed 0325 UTC 16 February 2019
Temperature: 2.0°C (36°F)
Dewpoint: 1.0°C (34°F) [RH = 93%]
Pressure (altimeter): 30.21 inches Hg (1023.0 mb)
Winds: from the S (180 degrees) at 8 MPH (7 knots; 3.6 m/s)
Visibility: 6 or more miles (10+ km)
Ceiling: at least 12,000 feet AGL
Clouds: sky clear below 12,000 feet AGL
Weather: no significant weather observed at this time

METAR text: EHLW 160255Z AUTO 18007KT 160V220 9999 NCD 04/02 Q1023 BLU
Conditions at: EHLW (LEEUWARDEN RNLAF, NL) observed 0255 UTC 16 February 2019
Temperature: 4.0°C (39°F)
Dewpoint: 2.0°C (36°F) [RH = 87%]
Pressure (altimeter): 30.21 inches Hg (1023.0 mb)
Winds: from the S (180 degrees) at 8 MPH (7 knots; 3.6 m/s)
Visibility: 6 or more miles (10+ km)
Ceiling: at least 12,000 feet AGL
Clouds: sky clear below 12,000 feet AGL
Weather: no significant weather observed at this time

METAR text: EHLW 160225Z AUTO 19007KT 170V230 9999 NCD 03/01 Q1023 BLU
Conditions at: EHLW (LEEUWARDEN RNLAF, NL) observed 0225 UTC 16 February 2019
Temperature: 3.0°C (37°F)
Dewpoint: 1.0°C (34°F) [RH = 87%]
Pressure (altimeter): 30.21 inches Hg (1023.0 mb)
Winds: from the S (190 degrees) at 8 MPH (7 knots; 3.6 m/s)
Visibility: 6 or more miles (10+ km)
Ceiling: at least 12,000 feet AGL
Clouds: sky clear below 12,000 feet AGL
Weather: no significant weather observed at this time

METAR text: EHLW 160155Z AUTO 19007KT 160V220 9999 NCD 03/01 Q1023 BLU
Conditions at: EHLW (LEEUWARDEN RNLAF, NL) observed 0155 UTC 16 February 2019
Temperature: 3.0°C (37°F)
Dewpoint: 1.0°C (34°F) [RH = 87%]
Pressure (altimeter): 30.21 inches Hg (1023.0 mb)
Winds: from the S (190 degrees) at 8 MPH (7 knots; 3.6 m/s)
Visibility: 6 or more miles (10+ km)
Ceiling: at least 12,000 feet AGL
Clouds: sky clear below 12,000 feet AGL
Weather: no significant weather observed at this time

METAR text: EHLW 160125Z AUTO 19007KT 170V230 9999 NCD 04/01 Q1024 BLU
Conditions at: EHLW (LEEUWARDEN RNLAF, NL) observed 0125 UTC 16 February 2019
Temperature: 4.0°C (39°F)
Dewpoint: 1.0°C (34°F) [RH = 81%]
Pressure (altimeter): 30.24 inches Hg (1024.0 mb)
Winds: from the S (190 degrees) at 8 MPH (7 knots; 3.6 m/s)
Visibility: 6 or more miles (10+ km)
Ceiling: at least 12,000 feet AGL
Clouds: sky clear below 12,000 feet AGL
Weather: no significant weather observed at this time

METAR text: EHLW 160055Z AUTO 18006KT 150V220 9999 NCD 05/02 Q1024 BLU
Conditions at: EHLW (LEEUWARDEN RNLAF, NL) observed 0055 UTC 16 February 2019
Temperature: 5.0°C (41°F)
Dewpoint: 2.0°C (36°F) [RH = 81%]
Pressure (altimeter): 30.24 inches Hg (1024.0 mb)
Winds: from the S (180 degrees) at 7 MPH (6 knots; 3.1 m/s)
Visibility: 6 or more miles (10+ km)
Ceiling: at least 12,000 feet AGL
Clouds: sky clear below 12,000 feet AGL
Weather: no significant weather observed at this time

METAR text: EHLW 160025Z AUTO 18006KT 9999 NCD 05/01 Q1024 BLU
Conditions at: EHLW (LEEUWARDEN RNLAF, NL) observed 0025 UTC 16 February 2019
Temperature: 5.0°C (41°F)
Dewpoint: 1.0°C (34°F) [RH = 75%]
Pressure (altimeter): 30.24 inches Hg (1024.0 mb)
Winds: from the S (180 degrees) at 7 MPH (6 knots; 3.1 m/s)
Visibility: 6 or more miles (10+ km)
Ceiling: at least 12,000 feet AGL
Clouds: sky clear below 12,000 feet AGL
Weather: no significant weather observed at this time

METAR text: EHLW 152355Z AUTO 18006KT 150V210 9999 NCD 05/02 Q1024 BLU
Conditions at: EHLW (LEEUWARDEN RNLAF, NL) observed 2355 UTC 15 February 2019
Temperature: 5.0°C (41°F)
Dewpoint: 2.0°C (36°F) [RH = 81%]
Pressure (altimeter): 30.24 inches Hg (1024.0 mb)
Winds: from the S (180 degrees) at 7 MPH (6 knots; 3.1 m/s)
Visibility: 6 or more miles (10+ km)
Ceiling: at least 12,000 feet AGL
Clouds: sky clear below 12,000 feet AGL
Weather: no significant weather observed at this time

METAR text: EHLW 152325Z AUTO 18006KT 150V210 9999 NCD 06/02 Q1024 BLU
Conditions at: EHLW (LEEUWARDEN RNLAF, NL) observed 2325 UTC 15 February 2019
Temperature: 6.0°C (43°F)
Dewpoint: 2.0°C (36°F) [RH = 75%]
Pressure (altimeter): 30.24 inches Hg (1024.0 mb)
Winds: from the S (180 degrees) at 7 MPH (6 knots; 3.1 m/s)
Visibility: 6 or more miles (10+ km)
Ceiling: at least 12,000 feet AGL
Clouds: sky clear below 12,000 feet AGL
Weather: no significant weather observed at this time

METAR text: EHLW 152255Z AUTO 17006KT 150V210 9999 NCD 06/02 Q1024 BLU
Conditions at: EHLW (LEEUWARDEN RNLAF, NL) observed 2255 UTC 15 February 2019
Temperature: 6.0°C (43°F)
Dewpoint: 2.0°C (36°F) [RH = 75%]
Pressure (altimeter): 30.24 inches Hg (1024.0 mb)
Winds: from the S (170 degrees) at 7 MPH (6 knots; 3.1 m/s)
Visibility: 6 or more miles (10+ km)
Ceiling: at least 12,000 feet AGL
Clouds: sky clear below 12,000 feet AGL
Weather: no significant weather observed at this time

METAR text: EHLW 152225Z AUTO 18006KT 150V210 9999 NCD 06/02 Q1025 BLU
Conditions at: EHLW (LEEUWARDEN RNLAF, NL) observed 2225 UTC 15 February 2019
Temperature: 6.0°C (43°F)
Dewpoint: 2.0°C (36°F) [RH = 75%]
Pressure (altimeter): 30.27 inches Hg (1025.0 mb)
Winds: from the S (180 degrees) at 7 MPH (6 knots; 3.1 m/s)
Visibility: 6 or more miles (10+ km)
Ceiling: at least 12,000 feet AGL
Clouds: sky clear below 12,000 feet AGL
Weather: no significant weather observed at this time

METAR text: EHLW 152155Z AUTO 18006KT 150V210 9999 NCD 07/02 Q1025 BLU
Conditions at: EHLW (LEEUWARDEN RNLAF, NL) observed 2155 UTC 15 February 2019
Temperature: 7.0°C (45°F)
Dewpoint: 2.0°C (36°F) [RH = 70%]
Pressure (altimeter): 30.27 inches Hg (1025.0 mb)
Winds: from the S (180 degrees) at 7 MPH (6 knots; 3.1 m/s)
Visibility: 6 or more miles (10+ km)
Ceiling: at least 12,000 feet AGL
Clouds: sky clear below 12,000 feet AGL
Weather: no significant weather observed at this time

METAR text: EHLW 152125Z AUTO 18006KT 150V210 9999 NCD 08/03 Q1025 BLU
Conditions at: EHLW (LEEUWARDEN RNLAF, NL) observed 2125 UTC 15 February 2019
Temperature: 8.0°C (46°F)
Dewpoint: 3.0°C (37°F) [RH = 71%]
Pressure (altimeter): 30.27 inches Hg (1025.0 mb)
Winds: from the S (180 degrees) at 7 MPH (6 knots; 3.1 m/s)
Visibility: 6 or more miles (10+ km)
Ceiling: at least 12,000 feet AGL
Clouds: sky clear below 12,000 feet AGL
Weather: no significant weather observed at this time

METAR text: EHLW 152055Z AUTO 18007KT 140V200 9999 NCD 07/03 Q1025 BLU
Conditions at: EHLW (LEEUWARDEN RNLAF, NL) observed 2055 UTC 15 February 2019
Temperature: 7.0°C (45°F)
Dewpoint: 3.0°C (37°F) [RH = 76%]
Pressure (altimeter): 30.27 inches Hg (1025.0 mb)
Winds: from the S (180 degrees) at 8 MPH (7 knots; 3.6 m/s)
Visibility: 6 or more miles (10+ km)
Ceiling: at least 12,000 feet AGL
Clouds: sky clear below 12,000 feet AGL
Weather: no significant weather observed at this time

METAR text: EHLW 152025Z AUTO 18006KT 150V210 9999 NCD 07/03 Q1026 BLU
Conditions at: EHLW (LEEUWARDEN RNLAF, NL) observed 2025 UTC 15 February 2019
Temperature: 7.0°C (45°F)
Dewpoint: 3.0°C (37°F) [RH = 76%]
Pressure (altimeter): 30.30 inches Hg (1026.0 mb)
Winds: from the S (180 degrees) at 7 MPH (6 knots; 3.1 m/s)
Visibility: 6 or more miles (10+ km)
Ceiling: at least 12,000 feet AGL
Clouds: sky clear below 12,000 feet AGL
Weather: no significant weather observed at this time

METAR text: EHLW 151955Z AUTO 18006KT 9999 NCD 08/03 Q1026 BLU
Conditions at: EHLW (LEEUWARDEN RNLAF, NL) observed 1955 UTC 15 February 2019
Temperature: 8.0°C (46°F)
Dewpoint: 3.0°C (37°F) [RH = 71%]
Pressure (altimeter): 30.30 inches Hg (1026.0 mb)
Winds: from the S (180 degrees) at 7 MPH (6 knots; 3.1 m/s)
Visibility: 6 or more miles (10+ km)
Ceiling: at least 12,000 feet AGL
Clouds: sky clear below 12,000 feet AGL
Weather: no significant weather observed at this time

METAR text: EHLW 151925Z AUTO 18006KT 140V200 9999 NCD 08/03 Q1026 BLU
Conditions at: EHLW (LEEUWARDEN RNLAF, NL) observed 1925 UTC 15 February 2019
Temperature: 8.0°C (46°F)
Dewpoint: 3.0°C (37°F) [RH = 71%]
Pressure (altimeter): 30.30 inches Hg (1026.0 mb)
Winds: from the S (180 degrees) at 7 MPH (6 knots; 3.1 m/s)
Visibility: 6 or more miles (10+ km)
Ceiling: at least 12,000 feet AGL
Clouds: sky clear below 12,000 feet AGL
Weather: no significant weather observed at this time

METAR text: EHLW 151855Z AUTO 18005KT 9999 NCD 09/03 Q1026 BLU
Conditions at: EHLW (LEEUWARDEN RNLAF, NL) observed 1855 UTC 15 February 2019
Temperature: 9.0°C (48°F)
Dewpoint: 3.0°C (37°F) [RH = 66%]
Pressure (altimeter): 30.30 inches Hg (1026.0 mb)
Winds: from the S (180 degrees) at 6 MPH (5 knots; 2.6 m/s)
Visibility: 6 or more miles (10+ km)
Ceiling: at least 12,000 feet AGL
Clouds: sky clear below 12,000 feet AGL
Weather: no significant weather observed at this time

METAR text: EHLW 151825Z AUTO 16007KT 9999 NCD 10/03 Q1026 BLU
Conditions at: EHLW (LEEUWARDEN RNLAF, NL) observed 1825 UTC 15 February 2019
Temperature: 10.0°C (50°F)
Dewpoint: 3.0°C (37°F) [RH = 62%]
Pressure (altimeter): 30.30 inches Hg (1026.0 mb)
Winds: from the SSE (160 degrees) at 8 MPH (7 knots; 3.6 m/s)
Visibility: 6 or more miles (10+ km)
Ceiling: at least 12,000 feet AGL
Clouds: sky clear below 12,000 feet AGL
Weather: no significant weather observed at this time

METAR text: EHLW 151755Z AUTO 17007KT 9999 NCD 10/03 Q1027 BLU
Conditions at: EHLW (LEEUWARDEN RNLAF, NL) observed 1755 UTC 15 February 2019
Temperature: 10.0°C (50°F)
Dewpoint: 3.0°C (37°F) [RH = 62%]
Pressure (altimeter): 30.32 inches Hg (1027.0 mb)
Winds: from the S (170 degrees) at 8 MPH (7 knots; 3.6 m/s)
Visibility: 6 or more miles (10+ km)
Ceiling: at least 12,000 feet AGL
Clouds: sky clear below 12,000 feet AGL
Weather: no significant weather observed at this time

METAR text: EHLW 151725Z AUTO 16007KT 9999 NCD 11/03 Q1027 BLU
Conditions at: EHLW (LEEUWARDEN RNLAF, NL) observed 1725 UTC 15 February 2019
Temperature: 11.0°C (52°F)
Dewpoint: 3.0°C (37°F) [RH = 58%]
Pressure (altimeter): 30.32 inches Hg (1027.0 mb)
Winds: from the SSE (160 degrees) at 8 MPH (7 knots; 3.6 m/s)
Visibility: 6 or more miles (10+ km)
Ceiling: at least 12,000 feet AGL
Clouds: sky clear below 12,000 feet AGL
Weather: no significant weather observed at this time

METAR text: EHLW 151655Z AUTO 16006KT 9999 NCD 11/03 Q1027 BLU
Conditions at: EHLW (LEEUWARDEN RNLAF, NL) observed 1655 UTC 15 February 2019
Temperature: 11.0°C (52°F)
Dewpoint: 3.0°C (37°F) [RH = 58%]
Pressure (altimeter): 30.32 inches Hg (1027.0 mb)
Winds: from the SSE (160 degrees) at 7 MPH (6 knots; 3.1 m/s)
Visibility: 6 or more miles (10+ km)
Ceiling: at least 12,000 feet AGL
Clouds: sky clear below 12,000 feet AGL
Weather: no significant weather observed at this time

METAR text: EHLW 151625Z AUTO 18005KT 9999 NCD 12/03 Q1027 BLU
Conditions at: EHLW (LEEUWARDEN RNLAF, NL) observed 1625 UTC 15 February 2019
Temperature: 12.0°C (54°F)
Dewpoint: 3.0°C (37°F) [RH = 54%]
Pressure (altimeter): 30.32 inches Hg (1027.0 mb)
Winds: from the S (180 degrees) at 6 MPH (5 knots; 2.6 m/s)
Visibility: 6 or more miles (10+ km)
Ceiling: at least 12,000 feet AGL
Clouds: sky clear below 12,000 feet AGL
Weather: no significant weather observed at this time

METAR text: EHLW 151555Z AUTO 18006KT 140V210 9999 NCD 12/03 Q1027 BLU
Conditions at: EHLW (LEEUWARDEN RNLAF, NL) observed 1555 UTC 15 February 2019
Temperature: 12.0°C (54°F)
Dewpoint: 3.0°C (37°F) [RH = 54%]
Pressure (altimeter): 30.32 inches Hg (1027.0 mb)
Winds: from the S (180 degrees) at 7 MPH (6 knots; 3.1 m/s)
Visibility: 6 or more miles (10+ km)
Ceiling: at least 12,000 feet AGL
Clouds: sky clear below 12,000 feet AGL
Weather: no significant weather observed at this time

METAR text: EHLW 151525Z AUTO 19007KT 140V210 9999 NCD 13/03 Q1027 BLU
Conditions at: EHLW (LEEUWARDEN RNLAF, NL) observed 1525 UTC 15 February 2019
Temperature: 13.0°C (55°F)
Dewpoint: 3.0°C (37°F) [RH = 51%]
Pressure (altimeter): 30.32 inches Hg (1027.0 mb)
Winds: from the S (190 degrees) at 8 MPH (7 knots; 3.6 m/s)
Visibility: 6 or more miles (10+ km)
Ceiling: at least 12,000 feet AGL
Clouds: sky clear below 12,000 feet AGL
Weather: no significant weather observed at this time

METAR text: EHLW 151455Z AUTO 18008KT 150V220 9999 NCD 13/03 Q1028 BLU
Conditions at: EHLW (LEEUWARDEN RNLAF, NL) observed 1455 UTC 15 February 2019
Temperature: 13.0°C (55°F)
Dewpoint: 3.0°C (37°F) [RH = 51%]
Pressure (altimeter): 30.35 inches Hg (1028.0 mb)
Winds: from the S (180 degrees) at 9 MPH (8 knots; 4.1 m/s)
Visibility: 6 or more miles (10+ km)
Ceiling: at least 12,000 feet AGL
Clouds: sky clear below 12,000 feet AGL
Weather: no significant weather observed at this time

METAR text: EHLW 151437Z AUTO 18008KT 150V230 9999 NCD 13/02 Q1028 BLU
Conditions at: EHLW (LEEUWARDEN RNLAF, NL) observed 1437 UTC 15 February 2019
Temperature: 13.0°C (55°F)
Dewpoint: 2.0°C (36°F) [RH = 47%]
Pressure (altimeter): 30.35 inches Hg (1028.0 mb)
Winds: from the S (180 degrees) at 9 MPH (8 knots; 4.1 m/s)
Visibility: 6 or more miles (10+ km)
Ceiling: at least 12,000 feet AGL
Clouds: sky clear below 12,000 feet AGL
Weather: no significant weather observed at this time

METAR text: EHLW 151436Z AUTO 18008KT 140V230 9999 NCD 13/02 Q1028 BLU RMK R23
Conditions at: EHLW (LEEUWARDEN RNLAF, NL) observed 1436 UTC 15 February 2019
Temperature: 13.0°C (55°F)
Dewpoint: 2.0°C (36°F) [RH = 47%]
Pressure (altimeter): 30.35 inches Hg (1028.0 mb)
Winds: from the S (180 degrees) at 9 MPH (8 knots; 4.1 m/s)
Visibility: 6 or more miles (10+ km)
Ceiling: at least 12,000 feet AGL
Clouds: sky clear below 12,000 feet AGL
Weather: no significant weather observed at this time

METAR text: EHLW 151425Z AUTO 18009KT 140V200 9999 NCD 13/02 Q1028 BLU 18008KT CAVOK RMK R23
Conditions at: EHLW (LEEUWARDEN RNLAF, NL) observed 1425 UTC 15 February 2019
Temperature: 13.0°C (55°F)
Dewpoint: 2.0°C (36°F) [RH = 47%]
Pressure (altimeter): 30.35 inches Hg (1028.0 mb)
Winds: from the S (180 degrees) at 10 MPH (9 knots; 4.6 m/s)
Visibility: 6 or more miles (10+ km)
Ceiling: at least 12,000 feet AGL
Clouds: sky clear below 12,000 feet AGL
Weather: no significant weather observed at this time

METAR text: EHLW 151355Z AUTO 18009KT 150V220 9999 NCD 13/02 Q1028 BLU 18008KT CAVOK RMK R23
Conditions at: EHLW (LEEUWARDEN RNLAF, NL) observed 1355 UTC 15 February 2019
Temperature: 13.0°C (55°F)
Dewpoint: 2.0°C (36°F) [RH = 47%]
Pressure (altimeter): 30.35 inches Hg (1028.0 mb)
Winds: from the S (180 degrees) at 10 MPH (9 knots; 4.6 m/s)
Visibility: 6 or more miles (10+ km)
Ceiling: at least 12,000 feet AGL
Clouds: sky clear below 12,000 feet AGL
Weather: no significant weather observed at this time

METAR text: EHLW 151325Z AUTO 18009KT 140V220 9999 NCD 13/01 Q1029 BLU 18008KT CAVOK RMK R23
Conditions at: EHLW (LEEUWARDEN RNLAF, NL) observed 1325 UTC 15 February 2019
Temperature: 13.0°C (55°F)
Dewpoint: 1.0°C (34°F) [RH = 44%]
Pressure (altimeter): 30.38 inches Hg (1029.0 mb)
Winds: from the S (180 degrees) at 10 MPH (9 knots; 4.6 m/s)
Visibility: 6 or more miles (10+ km)
Ceiling: at least 12,000 feet AGL
Clouds: sky clear below 12,000 feet AGL
Weather: no significant weather observed at this time

METAR text: EHLW 151255Z AUTO 19010KT 160V240 9999 NCD 13/02 Q1029 BLU 18008KT CAVOK RMK R23
Conditions at: EHLW (LEEUWARDEN RNLAF, NL) observed 1255 UTC 15 February 2019
Temperature: 13.0°C (55°F)
Dewpoint: 2.0°C (36°F) [RH = 47%]
Pressure (altimeter): 30.38 inches Hg (1029.0 mb)
Winds: from the S (190 degrees) at 12 MPH (10 knots; 5.1 m/s)
Visibility: 6 or more miles (10+ km)
Ceiling: at least 12,000 feet AGL
Clouds: sky clear below 12,000 feet AGL
Weather: no significant weather observed at this time

METAR text: EHLW 151225Z AUTO 19008KT 150V220 9999 NCD 12/03 Q1030 BLU 18008KT CAVOK RMK R23
Conditions at: EHLW (LEEUWARDEN RNLAF, NL) observed 1225 UTC 15 February 2019
Temperature: 12.0°C (54°F)
Dewpoint: 3.0°C (37°F) [RH = 54%]
Pressure (altimeter): 30.41 inches Hg (1030.0 mb)
Winds: from the S (190 degrees) at 9 MPH (8 knots; 4.1 m/s)
Visibility: 6 or more miles (10+ km)
Ceiling: at least 12,000 feet AGL
Clouds: sky clear below 12,000 feet AGL
Weather: no significant weather observed at this time

METAR text: EHLW 151155Z AUTO 19009KT 140V210 9999 NCD 12/02 Q1030 BLU 18008KT CAVOK RMK R23
Conditions at: EHLW (LEEUWARDEN RNLAF, NL) observed 1155 UTC 15 February 2019
Temperature: 12.0°C (54°F)
Dewpoint: 2.0°C (36°F) [RH = 50%]
Pressure (altimeter): 30.41 inches Hg (1030.0 mb)
Winds: from the S (190 degrees) at 10 MPH (9 knots; 4.6 m/s)
Visibility: 6 or more miles (10+ km)
Ceiling: at least 12,000 feet AGL
Clouds: sky clear below 12,000 feet AGL
Weather: no significant weather observed at this time

METAR text: EHLW 151125Z AUTO 18008KT 150V220 9999 NCD 11/01 Q1030 BLU 18008KT CAVOK RMK R23
Conditions at: EHLW (LEEUWARDEN RNLAF, NL) observed 1125 UTC 15 February 2019
Temperature: 11.0°C (52°F)
Dewpoint: 1.0°C (34°F) [RH = 50%]
Pressure (altimeter): 30.41 inches Hg (1030.0 mb)
Winds: from the S (180 degrees) at 9 MPH (8 knots; 4.1 m/s)
Visibility: 6 or more miles (10+ km)
Ceiling: at least 12,000 feet AGL
Clouds: sky clear below 12,000 feet AGL
Weather: no significant weather observed at this time

METAR text: EHLW 151055Z AUTO 18007KT 150V210 9999 NCD 10/01 Q1030 BLU 18008KT CAVOK RMK R23
Conditions at: EHLW (LEEUWARDEN RNLAF, NL) observed 1055 UTC 15 February 2019
Temperature: 10.0°C (50°F)
Dewpoint: 1.0°C (34°F) [RH = 53%]
Pressure (altimeter): 30.41 inches Hg (1030.0 mb)
Winds: from the S (180 degrees) at 8 MPH (7 knots; 3.6 m/s)
Visibility: 6 or more miles (10+ km)
Ceiling: at least 12,000 feet AGL
Clouds: sky clear below 12,000 feet AGL
Weather: no significant weather observed at this time

METAR text: EHLW 151050Z AUTO 18007KT 140V210 9999 NCD 10/01 Q1030 BLU 18008KT CAVOK RMK R23
Conditions at: EHLW (LEEUWARDEN RNLAF, NL) observed 1050 UTC 15 February 2019
Temperature: 10.0°C (50°F)
Dewpoint: 1.0°C (34°F) [RH = 53%]
Pressure (altimeter): 30.41 inches Hg (1030.0 mb)
Winds: from the S (180 degrees) at 8 MPH (7 knots; 3.6 m/s)
Visibility: 6 or more miles (10+ km)
Ceiling: at least 12,000 feet AGL
Clouds: sky clear below 12,000 feet AGL
Weather: no significant weather observed at this time

METAR text: EHLW 151025Z AUTO 18008KT 140V210 9999 NCD 08/00 Q1031 BLU 17007KT CAVOK RMK R23
Conditions at: EHLW (LEEUWARDEN RNLAF, NL) observed 1025 UTC 15 February 2019
Temperature: 8.0°C (46°F)
Dewpoint: 0.0°C (32°F) [RH = 57%]
Pressure (altimeter): 30.44 inches Hg (1031.0 mb)
Winds: from the S (180 degrees) at 9 MPH (8 knots; 4.1 m/s)
Visibility: 6 or more miles (10+ km)
Ceiling: at least 12,000 feet AGL
Clouds: sky clear below 12,000 feet AGL
Weather: no significant weather observed at this time

METAR text: EHLW 150955Z AUTO 18007KT 130V200 9999 NCD 08/M00 Q1031 BLU 17007KT CAVOK RMK R23
Conditions at: EHLW (LEEUWARDEN RNLAF, NL) observed 0955 UTC 15 February 2019
Temperature: 8.0°C (46°F)
Dewpoint: 0.0°C (32°F) [RH = 57%]
Pressure (altimeter): 30.44 inches Hg (1031.0 mb)
Winds: from the S (180 degrees) at 8 MPH (7 knots; 3.6 m/s)
Visibility: 6 or more miles (10+ km)
Ceiling: at least 12,000 feet AGL
Clouds: sky clear below 12,000 feet AGL
Weather: no significant weather observed at this time

METAR text: EHLW 150925Z AUTO 17008KT 140V200 9999 NCD 07/M01 Q1031 BLU 17007KT CAVOK RMK R23
Conditions at: EHLW (LEEUWARDEN RNLAF, NL) observed 0925 UTC 15 February 2019
Temperature: 7.0°C (45°F)
Dewpoint: -1.0°C (30°F) [RH = 57%]
Pressure (altimeter): 30.44 inches Hg (1031.0 mb)
Winds: from the S (170 degrees) at 9 MPH (8 knots; 4.1 m/s)
Visibility: 6 or more miles (10+ km)
Ceiling: at least 12,000 feet AGL
Clouds: sky clear below 12,000 feet AGL
Weather: no significant weather observed at this time

Forecast for: EHLW (LEEUWARDEN RNLAF, NL)
Text: TAF EHLW 161739Z 1618/1706 22007KT 8000 OVC023
Forecast period: 1800 UTC 16 February 2019 to 0600 UTC 17 February 2019
Forecast type: FROM: standard forecast or significant change
Winds: from the SW (220 degrees) at 8 MPH (7 knots; 3.6 m/s)
Visibility: 5 miles (8 km)
Ceiling: 2300 feet AGL
Clouds: overcast cloud deck at 2300 feet AGL
Weather: no significant weather forecast for this period
Text: TEMPO 1620/1701 BKN017
Forecast period: 2000 UTC 16 February 2019 to 0100 UTC 17 February 2019
Forecast type: TEMPORARY: The following changes expected for less than half the time period
Visibility: missing
Ceiling: 1700 feet AGL
Clouds: broken clouds at 1700 feet AGL
Weather: no significant weather forecast for this period
Text: PROB30
Forecast period: 0100 to 0600 UTC 17 February 2019
Forecast type: TEMPORARY: The following changes expected for less than half the time period
Visibility: 2.49 miles (4.01 km)
Ceiling: unknown
Clouds: missing
Weather: BR MIFG  (mist, shallow fog)